Time;durP1;ratioP1;P1;durP2;ratioP2;P2;SDS_P1;SDS_P2;PMS_P1;PMS_P2;Temp;Humidity;BMP_temperature;BMP_pressure;BME280_temperature;BME280_humidity;BME280_pressure;Samples;Min_cycle;Max_cycle;Signal;HPM_P1;HPM_P2
2021/04/15 00:01:45;;;;;;;5.07;3.67;;;2.90;99.90;;;;;;5054612;28;20223;-80
2021/04/15 00:04:12;;;;;;;5.77;3.83;;;2.90;99.90;;;;;;5054706;28;20615;-80
2021/04/15 00:06:39;;;;;;;6.17;3.73;;;2.80;99.90;;;;;;5045793;28;20199;-80
2021/04/15 00:09:10;;;;;;;4.70;3.67;;;2.80;99.90;;;;;;5049843;28;20293;-81
2021/04/15 00:11:38;;;;;;;6.40;4.57;;;2.50;99.90;;;;;;5050924;28;20635;-80
2021/04/15 00:14:05;;;;;;;6.10;4.20;;;2.60;99.90;;;;;;5057785;28;20286;-81
2021/04/15 00:16:34;;;;;;;8.20;4.70;;;2.60;99.90;;;;;;5052745;28;20290;-80
2021/04/15 00:19:01;;;;;;;7.80;4.10;;;2.60;99.90;;;;;;5059207;28;20263;-80
2021/04/15 00:21:28;;;;;;;7.13;4.07;;;2.50;99.90;;;;;;5058494;28;20309;-81
2021/04/15 00:23:55;;;;;;;6.70;4.23;;;2.40;99.90;;;;;;5055989;28;20195;-81
2021/04/15 00:26:24;;;;;;;6.50;3.87;;;2.20;99.90;;;;;;5054353;28;20276;-81
2021/04/15 00:28:51;;;;;;;8.77;4.10;;;2.20;99.90;;;;;;5057250;28;20662;-81
2021/04/15 00:31:18;;;;;;;6.27;4.23;;;2.00;99.90;;;;;;5055134;28;20211;-81
2021/04/15 00:33:44;;;;;;;6.23;4.17;;;2.10;99.90;;;;;;5055254;28;20668;-80
2021/04/15 00:36:12;;;;;;;7.33;4.33;;;2.10;99.90;;;;;;5057869;28;20636;-80
2021/04/15 00:38:39;;;;;;;10.43;5.50;;;2.40;99.90;;;;;;5052778;28;20232;-81
2021/04/15 00:41:07;;;;;;;8.63;4.73;;;2.40;99.90;;;;;;5058718;28;20216;-80
2021/04/15 00:43:37;;;;;;;8.43;5.03;;;2.40;99.90;;;;;;5047629;28;20638;-80
2021/04/15 00:46:38;;;;;;;7.90;5.20;;;2.50;99.90;;;;;;5049051;28;20297;-81
2021/04/15 00:49:05;;;;;;;7.53;5.40;;;2.50;99.90;;;;;;5054776;28;20198;-80
2021/04/15 00:51:36;;;;;;;7.77;4.70;;;2.50;99.90;;;;;;5053794;28;20297;-80
2021/04/15 00:54:06;;;;;;;9.07;5.33;;;2.50;99.90;;;;;;5056870;28;20202;-80
2021/04/15 00:56:33;;;;;;;10.43;5.40;;;2.50;99.90;;;;;;5055342;28;20217;-80
2021/04/15 00:59:03;;;;;;;9.23;5.00;;;2.50;99.90;;;;;;5057957;28;20302;-81
2021/04/15 01:01:30;;;;;;;7.97;5.23;;;2.50;99.90;;;;;;5058308;28;20223;-80
2021/04/15 01:03:56;;;;;;;9.20;5.20;;;2.60;99.90;;;;;;5058104;28;20681;-80
2021/04/15 01:06:22;;;;;;;8.73;5.83;;;2.60;99.90;;;;;;5057906;28;20321;-80
2021/04/15 01:08:49;;;;;;;8.93;5.17;;;2.50;99.90;;;;;;5055058;28;20207;-80
2021/04/15 01:11:27;;;;;;;10.20;5.80;;;2.60;99.90;;;;;;5058155;28;20661;-80
2021/04/15 01:14:02;;;;;;;8.77;5.17;;;2.50;99.90;;;;;;5058837;28;20655;-80
2021/04/15 01:16:34;;;;;;;6.73;4.07;;;2.50;99.90;;;;;;5056676;28;20296;-80
2021/04/15 01:19:16;;;;;;;7.73;5.27;;;2.50;99.90;;;;;;5058034;28;20207;-80
2021/04/15 01:22:08;;;;;;;8.53;5.00;;;2.50;99.90;;;;;;5045305;28;20226;-80
2021/04/15 01:24:39;;;;;;;10.80;5.53;;;2.50;99.90;;;;;;5053276;28;20203;-80
2021/04/15 01:27:23;;;;;;;7.57;5.37;;;2.50;99.90;;;;;;5055390;28;20314;-80
2021/04/15 01:29:56;;;;;;;10.13;5.80;;;2.60;99.90;;;;;;5059193;28;20209;-80
2021/04/15 01:32:26;;;;;;;9.50;5.60;;;2.60;99.90;;;;;;5057073;28;20225;-81
2021/04/15 01:34:56;;;;;;;9.50;5.83;;;2.60;99.90;;;;;;5058244;28;20215;-80
2021/04/15 01:37:30;;;;;;;8.50;6.10;;;2.60;99.90;;;;;;5056770;28;20260;-81
2021/04/15 01:40:02;;;;;;;8.87;5.70;;;2.60;99.90;;;;;;5053025;28;20641;-80
2021/04/15 01:42:32;;;;;;;9.97;5.70;;;2.60;99.90;;;;;;5055987;28;20322;-80
2021/04/15 01:45:04;;;;;;;8.33;5.20;;;2.60;99.90;;;;;;5054478;28;20207;-80
2021/04/15 01:47:36;;;;;;;7.77;5.43;;;2.60;99.90;;;;;;5055443;28;20203;-80
2021/04/15 01:50:09;;;;;;;11.60;6.13;;;2.50;99.90;;;;;;5057169;28;20195;-80
2021/04/15 01:52:38;;;;;;;10.57;5.70;;;2.40;99.90;;;;;;5055565;28;20222;-80
2021/04/15 01:55:11;;;;;;;7.90;5.53;;;2.40;99.90;;;;;;5052952;28;20202;-80
2021/04/15 01:57:43;;;;;;;8.40;5.40;;;2.40;99.90;;;;;;5056874;28;20278;-80
2021/04/15 02:00:17;;;;;;;8.37;5.53;;;2.30;99.90;;;;;;5054971;28;20203;-80
2021/04/15 02:02:48;;;;;;;8.37;5.50;;;2.40;99.90;;;;;;5056893;28;20288;-81
2021/04/15 02:05:22;;;;;;;10.67;5.63;;;2.30;99.90;;;;;;5049661;28;20271;-80
2021/04/15 02:07:53;;;;;;;7.07;5.27;;;2.30;99.90;;;;;;5053060;28;20195;-80
2021/04/15 02:10:20;;;;;;;8.37;5.60;;;2.40;99.90;;;;;;5055259;28;20203;-81
2021/04/15 02:12:50;;;;;;;11.07;6.30;;;2.20;99.90;;;;;;5054247;28;20219;-81
2021/04/15 02:15:23;;;;;;;8.07;5.33;;;2.20;99.90;;;;;;5048121;28;20272;-81
2021/04/15 02:17:51;;;;;;;10.57;6.30;;;2.20;99.90;;;;;;5050566;28;20232;-80
2021/04/15 02:20:20;;;;;;;9.20;5.73;;;2.10;99.90;;;;;;5050342;28;20304;-81
2021/04/15 02:22:53;;;;;;;9.30;5.33;;;2.20;99.90;;;;;;5053953;28;20325;-80
2021/04/15 02:25:27;;;;;;;13.77;6.50;;;2.20;99.90;;;;;;5054866;28;20584;-81
2021/04/15 02:27:59;;;;;;;11.87;7.13;;;2.00;99.90;;;;;;5048970;28;20232;-80
2021/04/15 02:30:30;;;;;;;12.83;6.93;;;1.90;99.90;;;;;;5047522;28;20200;-80
2021/04/15 02:33:02;;;;;;;10.03;6.23;;;1.80;99.90;;;;;;5042959;28;20318;-80
2021/04/15 02:35:35;;;;;;;8.43;5.40;;;1.90;99.90;;;;;;5043902;28;20204;-80
2021/04/15 02:38:02;;;;;;;10.47;6.07;;;1.90;99.90;;;;;;5051044;28;20295;-81
2021/04/15 02:40:32;;;;;;;9.63;6.17;;;1.70;99.90;;;;;;5050356;28;20243;-80
2021/04/15 02:43:06;;;;;;;11.27;6.77;;;1.80;99.90;;;;;;5045951;28;20234;-80
2021/04/15 02:45:38;;;;;;;9.47;5.83;;;1.80;99.90;;;;;;5054116;28;20207;-80
2021/04/15 02:48:10;;;;;;;9.93;6.13;;;1.80;99.90;;;;;;5051276;28;20222;-80
2021/04/15 02:50:38;;;;;;;11.33;6.53;;;1.70;99.90;;;;;;5052487;28;20202;-80
2021/04/15 02:53:11;;;;;;;10.30;6.20;;;1.70;99.90;;;;;;5053841;28;20250;-80
2021/04/15 02:55:50;;;;;;;9.43;6.03;;;1.80;99.90;;;;;;5054022;28;20207;-80
2021/04/15 02:58:23;;;;;;;10.60;6.33;;;1.80;99.90;;;;;;5054353;28;20248;-80
2021/04/15 03:00:52;;;;;;;13.87;6.60;;;1.80;99.90;;;;;;5053661;28;20217;-80
2021/04/15 03:03:21;;;;;;;11.77;6.80;;;1.80;99.90;;;;;;5053171;28;20233;-80
2021/04/15 03:05:51;;;;;;;11.30;6.70;;;1.90;99.90;;;;;;5051975;28;20271;-80
2021/04/15 03:08:23;;;;;;;11.50;6.00;;;1.90;99.90;;;;;;5040072;28;20234;-80
2021/04/15 03:10:54;;;;;;;11.47;6.63;;;1.90;99.90;;;;;;5051061;28;20211;-80
2021/04/15 03:13:24;;;;;;;9.50;6.17;;;1.70;99.90;;;;;;5051695;28;20219;-80
2021/04/15 03:15:55;;;;;;;10.57;6.33;;;1.70;99.90;;;;;;5035377;28;20357;-79
2021/04/15 03:18:30;;;;;;;11.17;6.67;;;1.70;99.90;;;;;;5035420;28;20268;-80
2021/04/15 03:21:02;;;;;;;12.10;6.77;;;1.70;99.90;;;;;;5054467;28;20233;-80
2021/04/15 03:23:37;;;;;;;14.17;6.90;;;1.70;99.90;;;;;;5057908;28;20765;-80
2021/04/15 03:26:15;;;;;;;14.03;6.57;;;1.70;99.90;;;;;;5057364;28;20570;-80
2021/04/15 03:28:47;;;;;;;10.37;6.60;;;1.60;99.90;;;;;;5057359;28;20194;-80
2021/04/15 03:31:22;;;;;;;13.80;7.03;;;1.60;99.90;;;;;;5057371;28;20203;-81
2021/04/15 03:33:53;;;;;;;12.57;7.07;;;1.50;99.90;;;;;;5055019;28;20262;-80
2021/04/15 03:36:26;;;;;;;11.63;6.53;;;1.40;99.90;;;;;;5054311;28;20203;-80
2021/04/15 03:38:56;;;;;;;12.27;6.67;;;1.40;99.90;;;;;;5057088;28;20236;-80
2021/04/15 03:41:40;;;;;;;11.97;7.03;;;1.30;99.90;;;;;;5044721;28;20225;-79
2021/04/15 03:44:09;;;;;;;11.57;6.80;;;1.30;99.90;;;;;;5056749;28;20301;-80
2021/04/15 03:46:41;;;;;;;13.13;7.87;;;1.40;99.90;;;;;;5057733;28;20258;-80
2021/04/15 03:49:12;;;;;;;12.80;7.07;;;1.30;99.90;;;;;;5049546;28;20266;-80
2021/04/15 03:51:42;;;;;;;13.87;7.00;;;1.30;99.90;;;;;;5057978;28;20213;-80
2021/04/15 03:54:12;;;;;;;12.73;7.30;;;1.20;99.90;;;;;;5058671;28;20581;-80
2021/04/15 03:56:40;;;;;;;15.13;7.10;;;1.10;99.90;;;;;;5059318;28;20241;-81
2021/04/15 03:59:11;;;;;;;15.53;7.93;;;1.00;99.90;;;;;;5056723;28;20726;-80
2021/04/15 04:01:42;;;;;;;14.40;7.07;;;1.00;99.90;;;;;;5041734;28;20629;-81
2021/04/15 04:04:17;;;;;;;11.30;7.27;;;0.90;99.90;;;;;;5051206;28;20650;-81
2021/04/15 04:06:46;;;;;;;13.57;7.67;;;0.80;99.90;;;;;;5043418;28;20222;-81
2021/04/15 04:09:17;;;;;;;11.80;7.63;;;0.70;99.90;;;;;;5057072;28;20290;-80
2021/04/15 04:11:46;;;;;;;13.83;7.47;;;0.60;99.90;;;;;;5057004;28;20733;-80
2021/04/15 04:14:16;;;;;;;14.90;8.13;;;0.60;99.90;;;;;;5056131;28;20207;-81
2021/04/15 04:16:48;;;;;;;15.07;7.97;;;0.70;99.90;;;;;;5047844;28;20213;-81
2021/04/15 04:19:20;;;;;;;22.47;7.67;;;0.70;99.90;;;;;;5058037;28;20203;-80
2021/04/15 04:21:50;;;;;;;14.07;7.73;;;0.70;99.90;;;;;;5049761;28;20234;-80
2021/04/15 04:24:28;;;;;;;13.17;7.60;;;0.60;99.90;;;;;;5053429;28;20277;-80
2021/04/15 04:26:59;;;;;;;14.33;7.77;;;0.60;99.90;;;;;;5055527;28;20281;-80
2021/04/15 04:29:35;;;;;;;14.50;7.50;;;0.60;99.90;;;;;;5051096;28;20214;-80
2021/04/15 04:32:07;;;;;;;12.50;7.20;;;0.70;99.90;;;;;;5051433;28;20739;-80
2021/04/15 04:34:34;;;;;;;14.90;7.33;;;0.80;99.90;;;;;;5058480;28;20570;-80
2021/04/15 04:37:02;;;;;;;15.37;8.07;;;0.70;99.90;;;;;;5056223;28;20218;-80
2021/04/15 04:39:30;;;;;;;15.67;9.10;;;0.80;99.90;;;;;;5047836;28;20208;-80
2021/04/15 04:42:05;;;;;;;17.33;8.20;;;0.70;99.90;;;;;;5057506;28;20684;-80
2021/04/15 04:44:39;;;;;;;13.73;7.67;;;0.80;99.90;;;;;;5057183;28;20195;-80
2021/04/15 04:47:18;;;;;;;12.07;7.47;;;0.80;99.90;;;;;;5046191;28;20218;-80
2021/04/15 04:49:52;;;;;;;16.33;7.77;;;0.70;99.90;;;;;;5054628;28;20293;-79
2021/04/15 04:52:22;;;;;;;13.80;8.00;;;0.60;99.90;;;;;;5058654;28;20221;-80
2021/04/15 04:54:48;;;;;;;19.50;7.77;;;0.90;99.90;;;;;;5058037;28;20271;-81
2021/04/15 04:57:20;;;;;;;17.20;8.57;;;0.90;99.90;;;;;;5061860;28;20730;-80
2021/04/15 04:59:50;;;;;;;12.80;7.93;;;1.10;99.90;;;;;;5050193;28;20207;-80
2021/04/15 05:02:18;;;;;;;15.63;7.70;;;1.20;99.90;;;;;;5061085;28;20735;-80
2021/04/15 05:04:44;;;;;;;14.50;8.03;;;1.30;99.90;;;;;;5052287;28;20227;-80
2021/04/15 05:07:19;;;;;;;14.80;8.17;;;1.60;99.90;;;;;;5055511;28;20290;-80
2021/04/15 05:09:46;;;;;;;14.60;8.50;;;1.90;99.90;;;;;;5061088;28;20573;-80
2021/04/15 05:12:17;;;;;;;14.37;8.33;;;2.20;99.90;;;;;;5061088;28;20244;-80
2021/04/15 05:14:43;;;;;;;14.47;7.50;;;2.40;99.90;;;;;;5060800;28;20226;-80
2021/04/15 05:17:21;;;;;;;12.10;7.87;;;2.50;99.90;;;;;;5051197;28;20611;-80
2021/04/15 05:19:48;;;;;;;13.03;7.50;;;2.60;99.90;;;;;;5060594;28;20203;-80
2021/04/15 05:22:21;;;;;;;14.40;7.30;;;2.90;99.90;;;;;;5042129;28;20703;-79
2021/04/15 05:24:50;;;;;;;15.60;7.87;;;3.00;99.90;;;;;;5056153;28;20666;-81
2021/04/15 05:27:19;;;;;;;17.03;9.93;;;3.30;99.90;;;;;;5055946;28;20213;-79
2021/04/15 05:29:48;;;;;;;20.70;12.90;;;3.20;99.90;;;;;;5051176;28;20203;-79
2021/04/15 05:32:17;;;;;;;15.77;9.33;;;3.10;99.90;;;;;;5038805;28;20223;-79
2021/04/15 05:34:47;;;;;;;12.23;7.20;;;3.30;99.90;;;;;;5056499;28;20225;-79
2021/04/15 05:37:17;;;;;;;12.57;7.57;;;3.60;99.90;;;;;;5048601;28;20203;-79
2021/04/15 05:39:44;;;;;;;11.27;7.53;;;3.60;99.90;;;;;;5047752;28;20559;-79
2021/04/15 05:42:18;;;;;;;12.47;7.70;;;3.50;99.90;;;;;;5041480;28;20705;-80
2021/04/15 05:44:48;;;;;;;12.27;7.33;;;3.70;99.90;;;;;;5055908;28;20206;-79
2021/04/15 05:47:17;;;;;;;14.50;8.10;;;3.50;99.90;;;;;;5055522;28;20298;-79
2021/04/15 05:49:52;;;;;;;12.63;8.00;;;3.30;99.90;;;;;;5053211;28;20198;-79
2021/04/15 05:52:26;;;;;;;16.63;7.90;;;3.10;99.90;;;;;;5050184;28;20250;-79
2021/04/15 05:54:57;;;;;;;13.77;7.80;;;3.20;99.90;;;;;;5055691;28;20565;-79
2021/04/15 05:57:29;;;;;;;13.90;8.93;;;3.30;99.90;;;;;;5055457;28;20252;-79
2021/04/15 06:00:04;;;;;;;14.73;9.03;;;3.30;99.90;;;;;;5041584;28;20720;-80
2021/04/15 06:02:39;;;;;;;10.17;7.30;;;3.50;99.90;;;;;;5054194;28;20591;-80
2021/04/15 06:05:14;;;;;;;13.60;8.03;;;4.00;99.90;;;;;;5054723;28;20327;-80
2021/04/15 06:07:42;;;;;;;14.33;7.93;;;3.90;99.90;;;;;;5052212;28;20617;-80
2021/04/15 06:10:10;;;;;;;13.57;7.93;;;3.70;99.90;;;;;;5048107;28;20210;-80
2021/04/15 06:12:45;;;;;;;14.50;8.00;;;3.60;99.90;;;;;;5054225;28;20217;-79
2021/04/15 06:15:16;;;;;;;16.87;8.77;;;3.70;99.90;;;;;;5053933;28;20323;-80
2021/04/15 06:17:48;;;;;;;13.53;8.40;;;4.10;99.90;;;;;;5055132;28;20210;-80
2021/04/15 06:20:21;;;;;;;11.97;7.60;;;4.40;99.90;;;;;;5055406;28;20679;-81
2021/04/15 06:22:51;;;;;;;17.63;8.93;;;4.30;99.90;;;;;;5048140;28;20646;-81
2021/04/15 06:25:21;;;;;;;16.90;9.60;;;4.10;99.90;;;;;;5055020;28;20285;-80
2021/04/15 06:27:49;;;;;;;16.33;8.90;;;4.10;99.90;;;;;;5054251;28;20206;-81
2021/04/15 06:30:20;;;;;;;15.67;9.30;;;4.50;99.90;;;;;;5053930;28;20207;-80
2021/04/15 06:32:53;;;;;;;17.07;8.80;;;4.40;99.90;;;;;;5053211;28;20215;-80
2021/04/15 06:35:23;;;;;;;15.77;8.83;;;4.40;99.90;;;;;;5054018;28;20693;-80
2021/04/15 06:37:52;;;;;;;17.07;9.33;;;4.30;99.90;;;;;;5053901;28;20210;-81
2021/04/15 06:40:52;;;;;;;15.47;9.10;;;4.30;99.90;;;;;;5053587;28;20576;-80
2021/04/15 06:43:54;;;;;;;14.63;8.90;;;4.40;99.90;;;;;;5042804;28;20276;-81
2021/04/15 06:46:32;;;;;;;17.57;9.60;;;4.80;99.90;;;;;;5050173;28;20225;-80
2021/04/15 06:49:27;;;;;;;15.67;9.60;;;5.10;99.90;;;;;;5051829;28;20285;-80
2021/04/15 06:52:00;;;;;;;20.50;9.53;;;5.50;99.90;;;;;;5051671;28;20223;-80
2021/04/15 06:54:37;;;;;;;16.87;9.67;;;5.90;99.90;;;;;;5051828;28;20207;-80
2021/04/15 06:57:23;;;;;;;18.17;9.40;;;5.90;99.90;;;;;;5045569;28;20555;-80
2021/04/15 07:00:06;;;;;;;16.10;9.43;;;6.50;99.90;;;;;;5046695;28;20207;-80
2021/04/15 07:03:01;;;;;;;15.67;8.90;;;6.10;99.90;;;;;;5048590;28;20261;-81
2021/04/15 07:05:31;;;;;;;17.27;8.83;;;6.00;99.90;;;;;;5045071;28;20575;-81
2021/04/15 07:08:02;;;;;;;12.33;8.23;;;5.90;99.90;;;;;;5047580;28;20199;-80
2021/04/15 07:10:55;;;;;;;16.37;9.07;;;5.80;99.90;;;;;;5051942;28;20203;-81
2021/04/15 07:14:15;;;;;;;17.20;9.33;;;5.70;99.90;;;;;;5053565;28;20314;-80
2021/04/15 07:17:02;;;;;;;17.33;9.30;;;6.10;99.90;;;;;;5001159;28;20200;-81
2021/04/15 07:20:02;;;;;;;15.70;8.73;;;7.00;99.90;;;;;;5012178;28;20246;-81
2021/04/15 07:22:53;;;;;;;14.60;9.23;;;6.80;99.90;;;;;;5038611;28;20274;-81
2021/04/15 07:25:33;;;;;;;14.87;9.53;;;6.70;99.90;;;;;;5041797;28;20203;-80
2021/04/15 07:28:25;;;;;;;15.77;8.73;;;6.70;99.90;;;;;;5046611;28;20257;-80
2021/04/15 07:31:16;;;;;;;16.47;8.67;;;6.50;99.90;;;;;;5037907;28;20198;-80
2021/04/15 07:34:04;;;;;;;14.47;8.33;;;6.00;99.90;;;;;;5051072;28;20226;-80
2021/04/15 07:37:01;;;;;;;14.63;8.70;;;6.30;99.90;;;;;;5051806;28;20265;-80
2021/04/15 07:39:41;;;;;;;14.67;8.87;;;7.10;99.90;;;;;;5053297;28;20198;-80
2021/04/15 07:42:26;;;;;;;15.30;9.10;;;7.20;99.90;;;;;;5052072;28;20679;-80
2021/04/15 07:44:56;;;;;;;16.57;8.83;;;7.50;99.90;;;;;;5049489;28;20677;-80
2021/04/15 07:47:48;;;;;;;14.37;8.33;;;6.90;99.90;;;;;;5042610;28;20215;-81
2021/04/15 07:50:54;;;;;;;21.23;9.43;;;6.30;99.90;;;;;;5047350;28;20290;-81
2021/04/15 07:53:46;;;;;;;16.40;9.30;;;6.60;99.90;;;;;;5052047;28;20591;-80
2021/04/15 07:56:50;;;;;;;16.37;8.73;;;6.70;99.90;;;;;;5052537;28;20606;-80
2021/04/15 07:59:31;;;;;;;19.73;10.70;;;7.10;99.90;;;;;;5048936;28;20305;-80
2021/04/15 08:02:34;;;;;;;13.23;8.37;;;6.80;99.90;;;;;;5042048;28;20216;-80
2021/04/15 08:05:37;;;;;;;15.87;8.93;;;6.90;99.90;;;;;;5043418;28;20199;-80
2021/04/15 08:08:26;;;;;;;15.13;8.87;;;7.20;99.90;;;;;;5043646;28;20202;-80
2021/04/15 08:11:28;;;;;;;13.63;8.43;;;7.50;99.90;;;;;;5053389;28;20214;-81
2021/04/15 08:14:06;;;;;;;16.07;8.07;;;7.60;99.90;;;;;;5042870;28;20195;-81
2021/04/15 08:16:49;;;;;;;15.50;8.50;;;7.60;99.90;;;;;;5053116;28;20712;-80
2021/04/15 08:19:37;;;;;;;13.07;7.57;;;7.70;99.90;;;;;;5042565;28;20203;-80
2021/04/15 08:22:13;;;;;;;14.77;7.47;;;7.50;99.90;;;;;;5042849;28;20249;-80
2021/04/15 08:24:58;;;;;;;12.03;7.10;;;8.00;99.90;;;;;;5044524;28;20207;-80
2021/04/15 08:27:51;;;;;;;15.27;7.87;;;7.70;99.90;;;;;;5053227;28;20242;-80
2021/04/15 08:30:45;;;;;;;15.70;7.60;;;7.60;99.90;;;;;;5048640;28;20213;-80
2021/04/15 08:33:57;;;;;;;13.27;7.23;;;8.30;99.90;;;;;;5055595;28;20639;-81
2021/04/15 08:36:51;;;;;;;12.20;7.60;;;8.40;99.90;;;;;;4993013;28;20633;-81
2021/04/15 08:39:33;;;;;;;13.00;7.13;;;8.80;99.90;;;;;;5057061;28;20213;-80
2021/04/15 08:42:19;;;;;;;11.70;7.90;;;8.70;99.90;;;;;;5056875;28;20218;-80
2021/04/15 08:45:24;;;;;;;13.30;7.50;;;8.90;99.90;;;;;;5045734;28;20337;-80
2021/04/15 08:47:58;;;;;;;13.33;8.17;;;8.60;99.90;;;;;;5046620;28;20624;-82
2021/04/15 08:50:38;;;;;;;14.40;8.07;;;9.00;99.90;;;;;;5049609;28;20267;-82
2021/04/15 08:53:19;;;;;;;16.33;7.57;;;8.00;99.90;;;;;;5051531;28;20231;-82
2021/04/15 08:55:50;;;;;;;15.20;7.37;;;8.00;99.90;;;;;;5051006;28;20207;-82
2021/04/15 08:58:50;;;;;;;15.27;7.50;;;8.00;99.90;;;;;;5052962;28;20605;-83
2021/04/15 09:01:25;;;;;;;12.23;7.53;;;8.20;99.90;;;;;;5033220;28;20214;-82
2021/04/15 09:03:56;;;;;;;13.97;7.03;;;8.00;99.90;;;;;;5048970;28;20789;-82
2021/04/15 09:06:27;;;;;;;11.87;7.10;;;8.10;99.90;;;;;;5054871;28;20647;-82
2021/04/15 09:09:19;;;;;;;12.13;6.53;;;8.30;99.90;;;;;;5047599;28;20235;-81
2021/04/15 09:12:01;;;;;;;9.17;6.10;;;9.10;99.90;;;;;;5053672;28;20231;-81
2021/04/15 09:14:41;;;;;;;10.90;5.27;;;9.40;99.90;;;;;;5054758;28;20215;-81
2021/04/15 09:17:11;;;;;;;10.13;5.80;;;9.80;99.90;;;;;;5049883;28;20293;-81
2021/04/15 09:19:48;;;;;;;16.30;6.23;;;10.20;99.90;;;;;;5055879;28;20199;-81
2021/04/15 09:22:50;;;;;;;12.67;5.77;;;10.00;99.90;;;;;;5049540;28;20222;-81
2021/04/15 09:25:22;;;;;;;10.43;5.80;;;10.40;99.90;;;;;;5055258;28;20198;-79
2021/04/15 09:28:00;;;;;;;10.93;6.53;;;10.50;99.90;;;;;;5046986;28;20244;-79
2021/04/15 09:30:49;;;;;;;11.47;7.27;;;10.60;99.90;;;;;;5055643;28;20248;-80
2021/04/15 09:33:35;;;;;;;12.47;6.43;;;10.50;99.90;;;;;;5050709;28;20760;-80
2021/04/15 09:36:06;;;;;;;14.17;7.20;;;10.50;99.90;;;;;;5053780;28;20202;-80
2021/04/15 09:39:03;;;;;;;10.13;5.47;;;10.30;99.90;;;;;;5049617;28;20207;-79
2021/04/15 09:41:59;;;;;;;7.37;4.13;;;10.20;99.90;;;;;;5052062;28;20570;-80
2021/04/15 09:44:36;;;;;;;10.80;4.53;;;10.00;99.90;;;;;;5051691;28;20203;-81
2021/04/15 09:47:11;;;;;;;7.20;4.27;;;9.90;99.90;;;;;;5050014;28;20716;-81
2021/04/15 09:49:53;;;;;;;8.23;4.57;;;9.70;99.90;;;;;;5049148;28;20285;-81
2021/04/15 09:52:33;;;;;;;9.83;4.73;;;9.80;99.90;;;;;;5049801;28;20641;-81
2021/04/15 09:55:20;;;;;;;7.93;4.40;;;9.60;99.90;;;;;;5047738;28;20207;-81
2021/04/15 09:57:56;;;;;;;7.77;4.47;;;10.10;99.90;;;;;;5053710;28;20694;-82
2021/04/15 10:00:28;;;;;;;8.17;3.87;;;10.10;99.90;;;;;;5053680;28;20736;-82
2021/04/15 10:03:16;;;;;;;9.63;3.50;;;10.60;99.90;;;;;;5054322;28;20226;-82
2021/04/15 10:05:49;;;;;;;6.80;3.50;;;10.60;99.90;;;;;;5050919;28;20215;-82
2021/04/15 10:08:26;;;;;;;5.73;3.00;;;10.40;99.90;;;;;;5055120;28;20225;-81
2021/04/15 10:11:00;;;;;;;7.67;3.17;;;10.60;99.90;;;;;;5054409;28;20553;-79
2021/04/15 10:13:43;;;;;;;6.67;3.30;;;10.90;99.90;;;;;;5050315;28;20309;-78
2021/04/15 10:16:20;;;;;;;5.50;2.90;;;10.90;99.90;;;;;;5049603;28;20526;-80
2021/04/15 10:19:07;;;;;;;3.33;2.30;;;10.50;99.90;;;;;;5052502;28;20203;-80
2021/04/15 10:21:42;;;;;;;4.03;1.90;;;10.90;99.90;;;;;;5054603;28;20252;-80
2021/04/15 10:24:17;;;;;;;5.33;2.10;;;11.10;99.90;;;;;;5055620;28;20220;-79
2021/04/15 10:27:29;;;;;;;4.00;1.90;;;11.10;99.90;;;;;;5046851;28;20574;-80
2021/04/15 10:30:25;;;;;;;4.57;2.77;;;10.90;99.90;;;;;;5016495;28;20276;-80
2021/04/15 10:33:22;;;;;;;5.80;2.33;;;11.10;99.90;;;;;;5041553;28;20220;-80
2021/04/15 10:36:18;;;;;;;4.90;1.90;;;10.60;99.90;;;;;;5047889;28;20199;-80
2021/04/15 10:39:38;;;;;;;2.77;2.30;;;11.00;99.90;;;;;;5045457;28;20210;-79
2021/04/15 10:42:34;;;;;;;3.23;1.97;;;10.10;99.90;;;;;;4972491;28;20222;-78
2021/04/15 10:45:26;;;;;;;3.90;1.93;;;10.00;99.90;;;;;;5051717;28;20195;-79
2021/04/15 10:48:17;;;;;;;5.47;2.33;;;10.60;99.90;;;;;;5048074;28;20199;-79
2021/04/15 10:50:52;;;;;;;4.70;2.17;;;10.20;99.90;;;;;;5050017;28;20228;-79
2021/04/15 10:53:44;;;;;;;5.20;2.13;;;10.80;99.90;;;;;;5045606;28;20215;-80
2021/04/15 10:56:28;;;;;;;3.33;2.37;;;11.70;99.90;;;;;;5052132;28;20278;-80
2021/04/15 10:59:06;;;;;;;2.53;2.00;;;11.60;99.90;;;;;;5045657;28;20294;-80
2021/04/15 11:01:35;;;;;;;2.83;1.57;;;11.10;99.90;;;;;;5051204;28;20198;-79
2021/04/15 11:04:22;;;;;;;4.10;1.87;;;10.50;99.90;;;;;;5053377;28;20215;-79
2021/04/15 11:06:51;;;;;;;4.20;1.80;;;9.60;99.90;;;;;;5041634;28;20203;-79
2021/04/15 11:09:24;;;;;;;3.10;1.83;;;9.30;99.90;;;;;;5047571;28;20229;-79
2021/04/15 11:11:58;;;;;;;2.13;1.60;;;9.20;99.90;;;;;;5046950;28;20227;-80
2021/04/15 11:14:26;;;;;;;3.97;2.00;;;9.10;99.90;;;;;;5020610;28;656198;-80
2021/04/15 11:16:55;;;;;;;3.67;2.23;;;9.20;99.90;;;;;;5046702;28;20202;-79
2021/04/15 11:19:25;;;;;;;3.77;2.30;;;8.80;99.90;;;;;;5047394;28;20674;-79
2021/04/15 11:21:54;;;;;;;3.50;2.30;;;8.80;99.90;;;;;;5054697;28;20820;-80
2021/04/15 11:24:33;;;;;;;4.63;2.47;;;9.00;99.90;;;;;;5052332;28;20698;-81
2021/04/15 11:27:01;;;;;;;3.97;2.20;;;9.50;99.90;;;;;;5050882;28;20276;-80
2021/04/15 11:29:35;;;;;;;4.00;2.60;;;9.20;99.90;;;;;;5048751;28;20237;-80
2021/04/15 11:32:22;;;;;;;4.23;2.97;;;9.20;99.90;;;;;;5049859;28;20218;-81
2021/04/15 11:35:06;;;;;;;2.97;2.23;;;9.10;99.90;;;;;;5047029;28;20621;-81
2021/04/15 11:37:33;;;;;;;2.30;2.10;;;9.10;99.90;;;;;;5045263;28;20683;-82
2021/04/15 11:40:24;;;;;;;6.33;2.40;;;9.20;99.90;;;;;;5045691;28;20695;-77
2021/04/15 11:42:51;;;;;;;3.57;2.43;;;9.20;99.90;;;;;;5054111;28;20219;-80
2021/04/15 11:45:31;;;;;;;3.97;2.30;;;9.00;99.90;;;;;;5045810;28;20567;-80
2021/04/15 11:48:17;;;;;;;5.80;2.50;;;9.20;99.90;;;;;;5046358;28;20256;-81
2021/04/15 11:50:45;;;;;;;4.40;2.67;;;9.20;99.90;;;;;;5044195;28;20229;-81
2021/04/15 11:53:40;;;;;;;3.80;2.30;;;9.00;99.90;;;;;;5042672;28;20246;-80
2021/04/15 11:56:32;;;;;;;4.80;2.50;;;9.00;99.90;;;;;;5012602;28;20293;-81
2021/04/15 11:59:17;;;;;;;3.83;2.30;;;9.30;99.90;;;;;;5043432;28;20199;-80
2021/04/15 12:01:45;;;;;;;5.23;2.30;;;9.00;99.90;;;;;;5047452;28;20241;-81
2021/04/15 12:04:23;;;;;;;3.67;2.30;;;9.00;99.90;;;;;;5044570;28;20223;-81
2021/04/15 12:06:54;;;;;;;3.23;2.33;;;8.90;99.90;;;;;;5044268;28;20195;-80
2021/04/15 12:09:27;;;;;;;3.20;2.40;;;8.90;99.90;;;;;;5048158;28;20191;-79
2021/04/15 12:12:02;;;;;;;2.67;2.03;;;9.20;99.90;;;;;;5052366;28;20558;-79
2021/04/15 12:14:29;;;;;;;2.60;1.80;;;9.60;99.90;;;;;;5054308;28;20203;-80
2021/04/15 12:17:01;;;;;;;3.30;2.00;;;9.50;99.90;;;;;;5054892;28;20205;-80
2021/04/15 12:19:36;;;;;;;6.80;2.10;;;10.00;99.90;;;;;;5048924;28;21465;-80
2021/04/15 12:22:10;;;;;;;2.30;1.67;;;10.30;99.90;;;;;;5056782;28;20228;-79
2021/04/15 12:24:44;;;;;;;1.93;1.53;;;9.60;99.90;;;;;;5062000;28;20694;-80
2021/04/15 12:27:17;;;;;;;1.53;1.37;;;9.30;99.90;;;;;;5056183;28;20206;-80
2021/04/15 12:29:49;;;;;;;3.20;1.73;;;9.20;99.90;;;;;;5055826;28;20214;-80
2021/04/15 12:32:22;;;;;;;3.03;1.60;;;9.30;99.90;;;;;;5047118;28;20223;-80
2021/04/15 12:35:07;;;;;;;1.73;1.40;;;9.30;99.90;;;;;;5049883;28;20207;-80
2021/04/15 12:37:37;;;;;;;2.50;1.83;;;9.60;99.90;;;;;;5051663;28;20659;-80
2021/04/15 12:40:24;;;;;;;2.23;1.70;;;9.70;99.90;;;;;;5050887;28;20229;-80
2021/04/15 12:42:53;;;;;;;1.33;1.20;;;9.60;99.90;;;;;;5053697;28;20222;-80
2021/04/15 12:45:25;;;;;;;1.53;1.23;;;9.30;99.90;;;;;;5054175;28;20710;-80
2021/04/15 12:47:53;;;;;;;1.07;0.97;;;9.10;99.90;;;;;;5048189;28;20217;-80
2021/04/15 12:50:20;;;;;;;1.50;1.10;;;9.10;99.90;;;;;;5049455;28;20204;-80
2021/04/15 12:52:49;;;;;;;2.00;1.00;;;9.10;99.90;;;;;;5053721;28;20642;-79
2021/04/15 12:55:20;;;;;;;2.07;1.53;;;9.00;99.90;;;;;;5048447;28;20208;-79
2021/04/15 12:57:48;;;;;;;1.60;1.30;;;9.00;99.90;;;;;;5053336;28;20671;-79
2021/04/15 13:00:18;;;;;;;1.57;1.30;;;9.20;99.90;;;;;;5051112;28;20225;-79
2021/04/15 13:02:45;;;;;;;2.23;1.17;;;9.40;99.90;;;;;;5055612;28;20574;-82
2021/04/15 13:05:33;;;;;;;1.70;0.90;;;9.40;99.90;;;;;;5051453;28;20231;-80
2021/04/15 13:08:21;;;;;;;2.47;1.30;;;9.40;99.90;;;;;;5050520;28;20242;-80
2021/04/15 13:10:47;;;;;;;1.50;1.37;;;9.90;99.90;;;;;;5044353;28;20211;-80
2021/04/15 13:13:34;;;;;;;2.37;1.27;;;10.00;99.90;;;;;;5053929;28;20230;-81
2021/04/15 13:16:00;;;;;;;1.93;1.10;;;10.10;99.90;;;;;;5046147;28;20203;-79
2021/04/15 13:18:44;;;;;;;1.30;1.00;;;10.00;99.90;;;;;;5041956;28;20676;-79
2021/04/15 13:21:26;;;;;;;0.80;0.80;;;10.00;99.90;;;;;;5044771;28;20290;-79
2021/04/15 13:23:53;;;;;;;1.87;1.40;;;10.20;99.90;;;;;;5052360;28;20227;-80
2021/04/15 13:26:33;;;;;;;1.00;0.90;;;9.90;99.90;;;;;;5050322;28;20649;-80
2021/04/15 13:29:20;;;;;;;1.10;1.00;;;10.00;99.90;;;;;;5046844;28;20300;-81
2021/04/15 13:31:53;;;;;;;1.20;1.10;;;10.60;99.90;;;;;;5050648;28;20261;-81
2021/04/15 13:34:23;;;;;;;1.10;0.83;;;10.20;99.90;;;;;;5053775;28;20211;-80
2021/04/15 13:36:51;;;;;;;2.20;0.87;;;10.40;99.90;;;;;;5048311;28;20622;-82
2021/04/15 13:39:35;;;;;;;0.90;0.70;;;10.30;99.90;;;;;;5049356;28;20336;-81